<?xml version="1.0" encoding="UTF-8" standalone="no" ?>
<gpx xmlns="http://www.topografix.com/GPX/1/1" creator="MapSource 6.16.3" version="1.1" xmlns:xsi="http://www.w3.org/2001/XMLSchema-instance" xsi:schemaLocation="http://www.topografix.com/GPX/1/1 http://www.topografix.com/GPX/1/1/gpx.xsd">

 <metadata>
 <link href="http://www.garmin.com">
 <text>Garmin International</text>
 </link>
 <time>2011-09-26T14:55:11Z</time>
 <bounds maxlat="54.434072831645608" maxlon="13.071200391277671" minlat="54.32808693498373" minlon="13.013513619080186"/>
 </metadata>

 <trk>
 <name>ACTIVE LOG 002</name>
 <extensions>
 <gpxx:TrackExtension xmlns:gpxx="http://www.garmin.com/xmlschemas/GpxExtensions/v3">
 <gpxx:DisplayColor>Magenta</gpxx:DisplayColor>
 </gpxx:TrackExtension>
 </extensions>
 <trkseg>
 <trkpt lat="54.32808693498373" lon="13.070163214579225">
 <ele>21.7669677734375</ele>
 <time>2011-09-26T12:30:59Z</time>
 </trkpt>
 <trkpt lat="54.328090958297253" lon="13.070162627846003">
 <ele>15.9990234375</ele>
 <time>2011-09-26T12:31:52Z</time>
 </trkpt>
 <trkpt lat="54.328171005472541" lon="13.070099679753184">
 <ele>4.94384765625</ele>
 <time>2011-09-26T12:32:20Z</time>
 </trkpt>
 <trkpt lat="54.328347025439143" lon="13.070282153785229">
 <ele>4.4632568359375</ele>
 <time>2011-09-26T12:32:28Z</time>
 </trkpt>
 <trkpt lat="54.32870015501976" lon="13.070822199806571">
 <ele>4.94384765625</ele>
 <time>2011-09-26T12:32:35Z</time>
 </trkpt>
 <trkpt lat="54.328869972378016" lon="13.071184884756804">
 <ele>5.9052734375</ele>
 <time>2011-09-26T12:32:44Z</time>
 </trkpt>
 <trkpt lat="54.328885227441788" lon="13.071200391277671">
 <ele>6.3858642578125</ele>
 <time>2011-09-26T12:32:45Z</time>
 </trkpt>
 <trkpt lat="54.329058565199375" lon="13.071099305525422">
 <ele>4.4632568359375</ele>
 <time>2011-09-26T12:32:49Z</time>
 </trkpt>
 <trkpt lat="54.329885104671121" lon="13.069973029196262">
 <ele>5.424560546875</ele>
 <time>2011-09-26T12:33:01Z</time>
 </trkpt>
 <trkpt lat="54.33019146323204" lon="13.069573799148202">
 <ele>5.9052734375</ele>
 <time>2011-09-26T12:33:09Z</time>
 </trkpt>
 <trkpt lat="54.330194061622024" lon="13.06958151049912">
 <ele>3.021240234375</ele>
 <time>2011-09-26T12:33:26Z</time>
 </trkpt>
 <trkpt lat="54.330458678305149" lon="13.069249922409654">
 <ele>3.501953125</ele>
 <time>2011-09-26T12:33:32Z</time>
 </trkpt>
 <trkpt lat="54.33113694190979" lon="13.068299582228065">
 <ele>4.94384765625</ele>
 <time>2011-09-26T12:33:42Z</time>
 </trkpt>
 <trkpt lat="54.332400429993868" lon="13.066690592095256">
 <ele>6.866455078125</ele>
 <time>2011-09-26T12:33:56Z</time>
 </trkpt>
 <trkpt lat="54.332787757739425" lon="13.066143756732345">
 <ele>7.827880859375</ele>
 <time>2011-09-26T12:34:04Z</time>
 </trkpt>
 <trkpt lat="54.332821033895016" lon="13.066093381494284">
 <ele>9.2698974609375</ele>
 <time>2011-09-26T12:34:12Z</time>
 </trkpt>
 <trkpt lat="54.332994287833571" lon="13.065863884985447">
 <ele>10.231201171875</ele>
 <time>2011-09-26T12:34:20Z</time>
 </trkpt>
 <trkpt lat="54.33361136354506" lon="13.06509593501687">
 <ele>10.231201171875</ele>
 <time>2011-09-26T12:34:29Z</time>
 </trkpt>
 <trkpt lat="54.333821246400476" lon="13.064915891736746">
 <ele>10.7117919921875</ele>
 <time>2011-09-26T12:34:32Z</time>
 </trkpt>
 <trkpt lat="54.334009503945708" lon="13.064831402152777">
 <ele>9.2698974609375</ele>
 <time>2011-09-26T12:34:35Z</time>
 </trkpt>
 <trkpt lat="54.334132885560393" lon="13.06434734724462">
 <ele>3.501953125</ele>
 <time>2011-09-26T12:34:42Z</time>
 </trkpt>
 <trkpt lat="54.334232965484262" lon="13.063865220174193">
 <ele>3.982666015625</ele>
 <time>2011-09-26T12:34:46Z</time>
 </trkpt>
 <trkpt lat="54.335103929042816" lon="13.062276346608996">
 <ele>1.579345703125</ele>
 <time>2011-09-26T12:34:57Z</time>
 </trkpt>
 <trkpt lat="54.336671093478799" lon="13.05949816480279">
 <ele>3.982666015625</ele>
 <time>2011-09-26T12:35:15Z</time>
 </trkpt>
 <trkpt lat="54.33777348138392" lon="13.057522382587194">
 <ele>4.4632568359375</ele>
 <time>2011-09-26T12:35:25Z</time>
 </trkpt>
 <trkpt lat="54.339153142645955" lon="13.055422296747565">
 <ele>4.4632568359375</ele>
 <time>2011-09-26T12:35:35Z</time>
 </trkpt>
 <trkpt lat="54.341483563184738" lon="13.052412020042539">
 <ele>9.2698974609375</ele>
 <time>2011-09-26T12:35:50Z</time>
 </trkpt>
 <trkpt lat="54.343282906338573" lon="13.050100710242987">
 <ele>7.827880859375</ele>
 <time>2011-09-26T12:36:02Z</time>
 </trkpt>
 <trkpt lat="54.344700369983912" lon="13.048804784193635">
 <ele>3.021240234375</ele>
 <time>2011-09-26T12:36:11Z</time>
 </trkpt>
 <trkpt lat="54.346441039815545" lon="13.047460243105888">
 <ele>0.137451171875</ele>
 <time>2011-09-26T12:36:21Z</time>
 </trkpt>
 <trkpt lat="54.348473148420453" lon="13.045735163614154">
 <ele>-0.8240966796875</ele>
 <time>2011-09-26T12:36:33Z</time>
 </trkpt>
 <trkpt lat="54.350314484909177" lon="13.04388795979321">
 <ele>4.4632568359375</ele>
 <time>2011-09-26T12:36:45Z</time>
 </trkpt>
 <trkpt lat="54.351337412372231" lon="13.0430768430233">
 <ele>5.424560546875</ele>
 <time>2011-09-26T12:36:53Z</time>
 </trkpt>
 <trkpt lat="54.351747957989573" lon="13.042894871905446">
 <ele>6.866455078125</ele>
 <time>2011-09-26T12:37:00Z</time>
 </trkpt>
 <trkpt lat="54.352326728403568" lon="13.042229767888784">
 <ele>4.4632568359375</ele>
 <time>2011-09-26T12:37:08Z</time>
 </trkpt>
 <trkpt lat="54.353638580068946" lon="13.041166355833411">
 <ele>0.6180419921875</ele>
 <time>2011-09-26T12:37:18Z</time>
 </trkpt>
 <trkpt lat="54.355130642652512" lon="13.039915356785059">
 <ele>-1.3046875</ele>
 <time>2011-09-26T12:37:27Z</time>
 </trkpt>
 <trkpt lat="54.357087900862098" lon="13.038014424964786">
 <ele>-5.14990234375</ele>
 <time>2011-09-26T12:37:39Z</time>
 </trkpt>
 <trkpt lat="54.358621370047331" lon="13.036043839529157">
 <ele>-4.6693115234375</ele>
 <time>2011-09-26T12:37:49Z</time>
 </trkpt>
 <trkpt lat="54.360149977728724" lon="13.034064620733261">
 <ele>-3.7078857421875</ele>
 <time>2011-09-26T12:38:00Z</time>
 </trkpt>
 <trkpt lat="54.361895844340324" lon="13.031851882115006">
 <ele>-5.6304931640625</ele>
 <time>2011-09-26T12:38:14Z</time>
 </trkpt>
 <trkpt lat="54.363656044006348" lon="13.029604190960526">
 <ele>-5.14990234375</ele>
 <time>2011-09-26T12:38:28Z</time>
 </trkpt>
 <trkpt lat="54.364604875445366" lon="13.028424941003323">
 <ele>-6.1112060546875</ele>
 <time>2011-09-26T12:38:38Z</time>
 </trkpt>
 <trkpt lat="54.365756129845977" lon="13.026924328878522">
 <ele>-9.475830078125</ele>
 <time>2011-09-26T12:38:50Z</time>
 </trkpt>
 <trkpt lat="54.366920040920377" lon="13.025444000959396">
 <ele>-7.072509765625</ele>
 <time>2011-09-26T12:39:02Z</time>
 </trkpt>
 <trkpt lat="54.368245974183083" lon="13.023741552606225">
 <ele>-5.6304931640625</ele>
 <time>2011-09-26T12:39:16Z</time>
 </trkpt>
 <trkpt lat="54.368331804871559" lon="13.023645076900721">
 <ele>-6.1112060546875</ele>
 <time>2011-09-26T12:39:17Z</time>
 </trkpt>
 <trkpt lat="54.369071424007416" lon="13.023590929806232">
 <ele>-5.6304931640625</ele>
 <time>2011-09-26T12:39:24Z</time>
 </trkpt>
 <trkpt lat="54.369516419246793" lon="13.023829227313399">
 <ele>-4.6693115234375</ele>
 <time>2011-09-26T12:39:28Z</time>
 </trkpt>
 <trkpt lat="54.369986560195684" lon="13.023859402164817">
 <ele>-10.9178466796875</ele>
 <time>2011-09-26T12:39:32Z</time>
 </trkpt>
 <trkpt lat="54.37078770250082" lon="13.023473164066672">
 <ele>-12.8404541015625</ele>
 <time>2011-09-26T12:39:39Z</time>
 </trkpt>
 <trkpt lat="54.372541448101401" lon="13.023517588153481">
 <ele>-8.033935546875</ele>
 <time>2011-09-26T12:39:53Z</time>
 </trkpt>
 <trkpt lat="54.374214559793472" lon="13.024095185101032">
 <ele>-6.5919189453125</ele>
 <time>2011-09-26T12:40:07Z</time>
 </trkpt>
 <trkpt lat="54.374459479004145" lon="13.024147907271981">
 <ele>-6.5919189453125</ele>
 <time>2011-09-26T12:40:09Z</time>
 </trkpt>
 <trkpt lat="54.374918974936008" lon="13.024019999429584">
 <ele>-5.6304931640625</ele>
 <time>2011-09-26T12:40:13Z</time>
 </trkpt>
 <trkpt lat="54.375976100564003" lon="13.02282708697021">
 <ele>-6.1112060546875</ele>
 <time>2011-09-26T12:40:23Z</time>
 </trkpt>
 <trkpt lat="54.376235688105226" lon="13.022502707317472">
 <ele>-4.6693115234375</ele>
 <time>2011-09-26T12:40:26Z</time>
 </trkpt>
 <trkpt lat="54.376948652788997" lon="13.02175210788846">
 <ele>-4.6693115234375</ele>
 <time>2011-09-26T12:40:37Z</time>
 </trkpt>
 <trkpt lat="54.377137832343578" lon="13.021773565560579">
 <ele>-3.227294921875</ele>
 <time>2011-09-26T12:40:41Z</time>
 </trkpt>
 <trkpt lat="54.377710316330194" lon="13.021889822557569">
 <ele>-4.6693115234375</ele>
 <time>2011-09-26T12:40:49Z</time>
 </trkpt>
 <trkpt lat="54.378690328449011" lon="13.022123761475086">
 <ele>-3.7078857421875</ele>
 <time>2011-09-26T12:40:59Z</time>
 </trkpt>
 <trkpt lat="54.380095051601529" lon="13.023196225985885">
 <ele>-4.1885986328125</ele>
 <time>2011-09-26T12:41:13Z</time>
 </trkpt>
 <trkpt lat="54.381587449461222" lon="13.024316215887666">
 <ele>-4.1885986328125</ele>
 <time>2011-09-26T12:41:26Z</time>
 </trkpt>
 <trkpt lat="54.383710082620382" lon="13.025910286232829">
 <ele>-6.1112060546875</ele>
 <time>2011-09-26T12:41:42Z</time>
 </trkpt>
 <trkpt lat="54.385459972545505" lon="13.027252480387688">
 <ele>-5.14990234375</ele>
 <time>2011-09-26T12:41:56Z</time>
 </trkpt>
 <trkpt lat="54.385602716356516" lon="13.027363121509552">
 <ele>-3.7078857421875</ele>
 <time>2011-09-26T12:41:58Z</time>
 </trkpt>
 <trkpt lat="54.385805558413267" lon="13.027444928884506">
 <ele>-3.227294921875</ele>
 <time>2011-09-26T12:42:07Z</time>
 </trkpt>
 <trkpt lat="54.386012926697731" lon="13.027473092079163">
 <ele>-5.6304931640625</ele>
 <time>2011-09-26T12:42:11Z</time>
 </trkpt>
 <trkpt lat="54.386912975460291" lon="13.027857234701514">
 <ele>-8.9952392578125</ele>
 <time>2011-09-26T12:42:20Z</time>
 </trkpt>
 <trkpt lat="54.388836203143001" lon="13.028810508549213">
 <ele>-10.9178466796875</ele>
 <time>2011-09-26T12:42:33Z</time>
 </trkpt>
 <trkpt lat="54.390818355605006" lon="13.029734613373876">
 <ele>-9.95654296875</ele>
 <time>2011-09-26T12:42:48Z</time>
 </trkpt>
 <trkpt lat="54.391428725793958" lon="13.030027309432626">
 <ele>-9.475830078125</ele>
 <time>2011-09-26T12:42:54Z</time>
 </trkpt>
 <trkpt lat="54.391915127635002" lon="13.029780127108097">
 <ele>-8.9952392578125</ele>
 <time>2011-09-26T12:43:00Z</time>
 </trkpt>
 <trkpt lat="54.392908047884703" lon="13.028023112565279">
 <ele>-9.475830078125</ele>
 <time>2011-09-26T12:43:12Z</time>
 </trkpt>
 <trkpt lat="54.393060766160488" lon="13.027717089280486">
 <ele>-8.5146484375</ele>
 <time>2011-09-26T12:43:18Z</time>
 </trkpt>
 <trkpt lat="54.393054731190205" lon="13.027721028774977">
 <ele>-8.5146484375</ele>
 <time>2011-09-26T12:43:31Z</time>
 </trkpt>
 <trkpt lat="54.393129078671336" lon="13.027502931654453">
 <ele>-8.9952392578125</ele>
 <time>2011-09-26T12:43:35Z</time>
 </trkpt>
 <trkpt lat="54.393701814115047" lon="13.026314042508602">
 <ele>-10.437255859375</ele>
 <time>2011-09-26T12:43:43Z</time>
 </trkpt>
 <trkpt lat="54.395134868100286" lon="13.023518258705735">
 <ele>-13.8017578125</ele>
 <time>2011-09-26T12:43:58Z</time>
 </trkpt>
 <trkpt lat="54.396293498575687" lon="13.022164916619658">
 <ele>-11.3984375</ele>
 <time>2011-09-26T12:44:07Z</time>
 </trkpt>
 <trkpt lat="54.396665403619409" lon="13.02181757055223">
 <ele>-10.9178466796875</ele>
 <time>2011-09-26T12:44:10Z</time>
 </trkpt>
 <trkpt lat="54.397257082164288" lon="13.021668121218681">
 <ele>-10.437255859375</ele>
 <time>2011-09-26T12:44:15Z</time>
 </trkpt>
 <trkpt lat="54.398775044828653" lon="13.021580027416348">
 <ele>-11.3984375</ele>
 <time>2011-09-26T12:44:25Z</time>
 </trkpt>
 <trkpt lat="54.39989578910172" lon="13.021119777113199">
 <ele>-8.9952392578125</ele>
 <time>2011-09-26T12:44:34Z</time>
 </trkpt>
 <trkpt lat="54.400429967790842" lon="13.020764384418726">
 <ele>-8.5146484375</ele>
 <time>2011-09-26T12:44:41Z</time>
 </trkpt>
 <trkpt lat="54.400717550888658" lon="13.020546957850456">
 <ele>-10.437255859375</ele>
 <time>2011-09-26T12:44:47Z</time>
 </trkpt>
 <trkpt lat="54.401376703754067" lon="13.019548254087567">
 <ele>-11.3984375</ele>
 <time>2011-09-26T12:44:56Z</time>
 </trkpt>
 <trkpt lat="54.402325619012117" lon="13.017872963100672">
 <ele>-10.437255859375</ele>
 <time>2011-09-26T12:45:11Z</time>
 </trkpt>
 <trkpt lat="54.402643712237477" lon="13.017324199900031">
 <ele>-7.5531005859375</ele>
 <time>2011-09-26T12:45:20Z</time>
 </trkpt>
 <trkpt lat="54.402936995029449" lon="13.016794798895717">
 <ele>-10.437255859375</ele>
 <time>2011-09-26T12:45:30Z</time>
 </trkpt>
 <trkpt lat="54.403327172622085" lon="13.016119468957186">
 <ele>-10.437255859375</ele>
 <time>2011-09-26T12:45:41Z</time>
 </trkpt>
 <trkpt lat="54.403552981093526" lon="13.015715796500444">
 <ele>-7.072509765625</ele>
 <time>2011-09-26T12:45:50Z</time>
 </trkpt>
 <trkpt lat="54.404143569990993" lon="13.01464450545609">
 <ele>-11.879150390625</ele>
 <time>2011-09-26T12:46:04Z</time>
 </trkpt>
 <trkpt lat="54.404299221932888" lon="13.014545934274793">
 <ele>-7.072509765625</ele>
 <time>2011-09-26T12:46:11Z</time>
 </trkpt>
 <trkpt lat="54.404345070943236" lon="13.014563955366611">
 <ele>-6.5919189453125</ele>
 <time>2011-09-26T12:46:15Z</time>
 </trkpt>
 <trkpt lat="54.404486892744899" lon="13.014705274254084">
 <ele>-5.6304931640625</ele>
 <time>2011-09-26T12:46:18Z</time>
 </trkpt>
 <trkpt lat="54.404956279322505" lon="13.014816753566265">
 <ele>-7.5531005859375</ele>
 <time>2011-09-26T12:46:24Z</time>
 </trkpt>
 <trkpt lat="54.405912905931473" lon="13.014066573232412">
 <ele>-8.9952392578125</ele>
 <time>2011-09-26T12:46:34Z</time>
 </trkpt>
 <trkpt lat="54.406392350792885" lon="13.014034302905202">
 <ele>-9.95654296875</ele>
 <time>2011-09-26T12:46:39Z</time>
 </trkpt>
 <trkpt lat="54.407074134796858" lon="13.014365052804351">
 <ele>-9.475830078125</ele>
 <time>2011-09-26T12:46:46Z</time>
 </trkpt>
 <trkpt lat="54.407257866114378" lon="13.014428839087486">
 <ele>-9.475830078125</ele>
 <time>2011-09-26T12:46:48Z</time>
 </trkpt>
 <trkpt lat="54.408429991453886" lon="13.014488853514194">
 <ele>-10.9178466796875</ele>
 <time>2011-09-26T12:47:00Z</time>
 </trkpt>
 <trkpt lat="54.410063540562987" lon="13.015028480440378">
 <ele>-11.3984375</ele>
 <time>2011-09-26T12:47:16Z</time>
 </trkpt>
 <trkpt lat="54.411379331722856" lon="13.015451515093446">
 <ele>-11.3984375</ele>
 <time>2011-09-26T12:47:29Z</time>
 </trkpt>
 <trkpt lat="54.411727013066411" lon="13.01574882119894">
 <ele>-9.95654296875</ele>
 <time>2011-09-26T12:47:33Z</time>
 </trkpt>
 <trkpt lat="54.411928178742528" lon="13.016034392639995">
 <ele>-8.5146484375</ele>
 <time>2011-09-26T12:47:36Z</time>
 </trkpt>
 <trkpt lat="54.412340568378568" lon="13.016093485057354">
 <ele>-9.95654296875</ele>
 <time>2011-09-26T12:47:42Z</time>
 </trkpt>
 <trkpt lat="54.413488553836942" lon="13.015222689136863">
 <ele>-6.1112060546875</ele>
 <time>2011-09-26T12:47:55Z</time>
 </trkpt>
 <trkpt lat="54.414842398837209" lon="13.014211412519217">
 <ele>-7.5531005859375</ele>
 <time>2011-09-26T12:48:09Z</time>
 </trkpt>
 <trkpt lat="54.415495349094272" lon="13.013689890503883">
 <ele>-6.5919189453125</ele>
 <time>2011-09-26T12:48:16Z</time>
 </trkpt>
 <trkpt lat="54.416128434240818" lon="13.013877309858799">
 <ele>-3.227294921875</ele>
 <time>2011-09-26T12:48:23Z</time>
 </trkpt>
 <trkpt lat="54.416270507499576" lon="13.014159528538585">
 <ele>-1.7852783203125</ele>
 <time>2011-09-26T12:48:25Z</time>
 </trkpt>
 <trkpt lat="54.416994787752628" lon="13.016438232734799">
 <ele>0.6180419921875</ele>
 <time>2011-09-26T12:48:36Z</time>
 </trkpt>
 <trkpt lat="54.417670452967286" lon="13.018434047698975">
 <ele>5.424560546875</ele>
 <time>2011-09-26T12:48:45Z</time>
 </trkpt>
 <trkpt lat="54.418456591665745" lon="13.019265364855528">
 <ele>7.34716796875</ele>
 <time>2011-09-26T12:48:52Z</time>
 </trkpt>
 <trkpt lat="54.419198976829648" lon="13.019576752558351">
 <ele>8.7891845703125</ele>
 <time>2011-09-26T12:48:58Z</time>
 </trkpt>
 <trkpt lat="54.419573983177543" lon="13.019903395324945">
 <ele>7.827880859375</ele>
 <time>2011-09-26T12:49:02Z</time>
 </trkpt>
 <trkpt lat="54.419869612902403" lon="13.020252166315913">
 <ele>6.866455078125</ele>
 <time>2011-09-26T12:49:06Z</time>
 </trkpt>
 <trkpt lat="54.419995173811913" lon="13.020352078601718">
 <ele>6.3858642578125</ele>
 <time>2011-09-26T12:49:08Z</time>
 </trkpt>
 <trkpt lat="54.420137666165829" lon="13.020317461341619">
 <ele>5.9052734375</ele>
 <time>2011-09-26T12:49:11Z</time>
 </trkpt>
 <trkpt lat="54.4201650749892" lon="13.020092155784369">
 <ele>4.4632568359375</ele>
 <time>2011-09-26T12:49:21Z</time>
 </trkpt>
 <trkpt lat="54.420146886259317" lon="13.019792670384049">
 <ele>4.4632568359375</ele>
 <time>2011-09-26T12:49:32Z</time>
 </trkpt>
 <trkpt lat="54.42005317658186" lon="13.019816474989057">
 <ele>5.424560546875</ele>
 <time>2011-09-26T12:49:42Z</time>
 </trkpt>
 <trkpt lat="54.420069102197886" lon="13.019797448068857">
 <ele>6.3858642578125</ele>
 <time>2011-09-26T12:50:05Z</time>
 </trkpt>
 <trkpt lat="54.420121489092708" lon="13.01983131095767">
 <ele>6.866455078125</ele>
 <time>2011-09-26T12:50:10Z</time>
 </trkpt>
 <trkpt lat="54.420091984793544" lon="13.019777918234468">
 <ele>11.1925048828125</ele>
 <time>2011-09-26T12:50:28Z</time>
 </trkpt>
 <trkpt lat="54.420124925673008" lon="13.020047564059496">
 <ele>9.2698974609375</ele>
 <time>2011-09-26T12:54:19Z</time>
 </trkpt>
 <trkpt lat="54.420136995613575" lon="13.020101878792048">
 <ele>7.34716796875</ele>
 <time>2011-09-26T12:54:23Z</time>
 </trkpt>
 <trkpt lat="54.420169349759817" lon="13.020329028367996">
 <ele>4.94384765625</ele>
 <time>2011-09-26T12:54:36Z</time>
 </trkpt>
 <trkpt lat="54.420280493795872" lon="13.020425252616405">
 <ele>2.5406494140625</ele>
 <time>2011-09-26T12:54:52Z</time>
 </trkpt>
 <trkpt lat="54.420367665588856" lon="13.020467581227422">
 <ele>1.0986328125</ele>
 <time>2011-09-26T12:55:04Z</time>
 </trkpt>
 <trkpt lat="54.420557264238596" lon="13.020528517663479">
 <ele>0.137451171875</ele>
 <time>2011-09-26T12:55:21Z</time>
 </trkpt>
 <trkpt lat="54.420669581741095" lon="13.020558441057801">
 <ele>1.0986328125</ele>
 <time>2011-09-26T12:55:30Z</time>
 </trkpt>
 <trkpt lat="54.420764464884996" lon="13.020564056932926">
 <ele>3.021240234375</ele>
 <time>2011-09-26T12:55:45Z</time>
 </trkpt>
 <trkpt lat="54.420860856771469" lon="13.020595237612724">
 <ele>4.94384765625</ele>
 <time>2011-09-26T12:55:57Z</time>
 </trkpt>
 <trkpt lat="54.42091760225594" lon="13.020620383322239">
 <ele>4.94384765625</ele>
 <time>2011-09-26T12:56:04Z</time>
 </trkpt>
 <trkpt lat="54.421020280569792" lon="13.020724235102534">
 <ele>8.30859375</ele>
 <time>2011-09-26T12:56:19Z</time>
 </trkpt>
 <trkpt lat="54.421138884499669" lon="13.02083688788116">
 <ele>7.34716796875</ele>
 <time>2011-09-26T12:56:32Z</time>
 </trkpt>
 <trkpt lat="54.421148020774126" lon="13.021144839003682">
 <ele>7.827880859375</ele>
 <time>2011-09-26T12:56:52Z</time>
 </trkpt>
 <trkpt lat="54.42106562666595" lon="13.021430661901832">
 <ele>2.5406494140625</ele>
 <time>2011-09-26T12:57:20Z</time>
 </trkpt>
 <trkpt lat="54.421351365745068" lon="13.021696452051401">
 <ele>-1.3046875</ele>
 <time>2011-09-26T12:59:06Z</time>
 </trkpt>
 <trkpt lat="54.421681612730026" lon="13.021900551393628">
 <ele>-1.7852783203125</ele>
 <time>2011-09-26T13:00:00Z</time>
 </trkpt>
 <trkpt lat="54.421872720122337" lon="13.022055868059397">
 <ele>-2.7467041015625</ele>
 <time>2011-09-26T13:00:23Z</time>
 </trkpt>
 <trkpt lat="54.422059804201126" lon="13.022171370685101">
 <ele>-4.6693115234375</ele>
 <time>2011-09-26T13:00:42Z</time>
 </trkpt>
 <trkpt lat="54.422195507213473" lon="13.022243287414312">
 <ele>-5.6304931640625</ele>
 <time>2011-09-26T13:00:54Z</time>
 </trkpt>
 <trkpt lat="54.422319810837507" lon="13.022296512499452">
 <ele>-8.9952392578125</ele>
 <time>2011-09-26T13:01:05Z</time>
 </trkpt>
 <trkpt lat="54.422480491921306" lon="13.02227882668376">
 <ele>-11.3984375</ele>
 <time>2011-09-26T13:01:20Z</time>
 </trkpt>
 <trkpt lat="54.422667324542999" lon="13.02230279892683">
 <ele>-12.8404541015625</ele>
 <time>2011-09-26T13:01:54Z</time>
 </trkpt>
 <trkpt lat="54.422693811357021" lon="13.022321155294776">
 <ele>-12.8404541015625</ele>
 <time>2011-09-26T13:01:56Z</time>
 </trkpt>
 <trkpt lat="54.422817276790738" lon="13.022419139742851">
 <ele>-14.282470703125</ele>
 <time>2011-09-26T13:02:09Z</time>
 </trkpt>
 <trkpt lat="54.422934204339981" lon="13.022459289059043">
 <ele>-13.8017578125</ele>
 <time>2011-09-26T13:02:22Z</time>
 </trkpt>
 <trkpt lat="54.423062279820442" lon="13.022545790299773">
 <ele>-12.8404541015625</ele>
 <time>2011-09-26T13:02:34Z</time>
 </trkpt>
 <trkpt lat="54.423247603699565" lon="13.022745447233319">
 <ele>-13.321044921875</ele>
 <time>2011-09-26T13:02:51Z</time>
 </trkpt>
 <trkpt lat="54.423365956172347" lon="13.022798169404268">
 <ele>-13.321044921875</ele>
 <time>2011-09-26T13:03:03Z</time>
 </trkpt>
 <trkpt lat="54.42352345213294" lon="13.022866230458021">
 <ele>-8.9952392578125</ele>
 <time>2011-09-26T13:03:23Z</time>
 </trkpt>
 <trkpt lat="54.4236153177917" lon="13.022914174944162">
 <ele>-10.9178466796875</ele>
 <time>2011-09-26T13:03:37Z</time>
 </trkpt>
 <trkpt lat="54.423756636679173" lon="13.023066222667694">
 <ele>-10.9178466796875</ele>
 <time>2011-09-26T13:03:54Z</time>
 </trkpt>
 <trkpt lat="54.42377507686615" lon="13.023080136626959">
 <ele>-10.9178466796875</ele>
 <time>2011-09-26T13:03:56Z</time>
 </trkpt>
 <trkpt lat="54.423933075740933" lon="13.023237129673362">
 <ele>-5.6304931640625</ele>
 <time>2011-09-26T13:04:13Z</time>
 </trkpt>
 <trkpt lat="54.424115968868136" lon="13.02332597784698">
 <ele>-0.3433837890625</ele>
 <time>2011-09-26T13:04:34Z</time>
 </trkpt>
 <trkpt lat="54.424319146201015" lon="13.023467296734452">
 <ele>1.0986328125</ele>
 <time>2011-09-26T13:04:57Z</time>
 </trkpt>
 <trkpt lat="54.424830609932542" lon="13.023833250626922">
 <ele>-1.3046875</ele>
 <time>2011-09-26T13:06:00Z</time>
 </trkpt>
 <trkpt lat="54.424935299903154" lon="13.02397632971406">
 <ele>-2.2659912109375</ele>
 <time>2011-09-26T13:06:23Z</time>
 </trkpt>
 <trkpt lat="54.425035379827023" lon="13.024229127913713">
 <ele>-1.3046875</ele>
 <time>2011-09-26T13:06:37Z</time>
 </trkpt>
 <trkpt lat="54.425074523314834" lon="13.024482931941748">
 <ele>0.6180419921875</ele>
 <time>2011-09-26T13:06:53Z</time>
 </trkpt>
 <trkpt lat="54.425101596862078" lon="13.024743441492319">
 <ele>-0.8240966796875</ele>
 <time>2011-09-26T13:07:08Z</time>
 </trkpt>
 <trkpt lat="54.425132190808654" lon="13.025063294917345">
 <ele>-2.7467041015625</ele>
 <time>2011-09-26T13:07:26Z</time>
 </trkpt>
 <trkpt lat="54.425151636824012" lon="13.025443078950047">
 <ele>-0.8240966796875</ele>
 <time>2011-09-26T13:07:44Z</time>
 </trkpt>
 <trkpt lat="54.425181057304144" lon="13.026113966479897">
 <ele>1.0986328125</ele>
 <time>2011-09-26T13:08:22Z</time>
 </trkpt>
 <trkpt lat="54.425212657079101" lon="13.026455948129296">
 <ele>-0.8240966796875</ele>
 <time>2011-09-26T13:08:39Z</time>
 </trkpt>
 <trkpt lat="54.425266804173589" lon="13.026744285598397">
 <ele>-3.227294921875</ele>
 <time>2011-09-26T13:08:54Z</time>
 </trkpt>
 <trkpt lat="54.425273342058063" lon="13.026903625577688">
 <ele>-3.227294921875</ele>
 <time>2011-09-26T13:09:01Z</time>
 </trkpt>
 <trkpt lat="54.425267642363906" lon="13.027044022455812">
 <ele>-6.5919189453125</ele>
 <time>2011-09-26T13:09:11Z</time>
 </trkpt>
 <trkpt lat="54.425255237147212" lon="13.02729120478034">
 <ele>-8.5146484375</ele>
 <time>2011-09-26T13:09:24Z</time>
 </trkpt>
 <trkpt lat="54.425299912691116" lon="13.027507038787007">
 <ele>-10.437255859375</ele>
 <time>2011-09-26T13:09:44Z</time>
 </trkpt>
 <trkpt lat="54.425319526344538" lon="13.027806356549263">
 <ele>-11.3984375</ele>
 <time>2011-09-26T13:09:57Z</time>
 </trkpt>
 <trkpt lat="54.425334529951215" lon="13.028080109506845">
 <ele>-17.6470947265625</ele>
 <time>2011-09-26T13:10:09Z</time>
 </trkpt>
 <trkpt lat="54.425352718681097" lon="13.028290662914515">
 <ele>-21.9730224609375</ele>
 <time>2011-09-26T13:10:20Z</time>
 </trkpt>
 <trkpt lat="54.425367722287774" lon="13.028363166376948">
 <ele>-22.45361328125</ele>
 <time>2011-09-26T13:10:24Z</time>
 </trkpt>
 <trkpt lat="54.425388593226671" lon="13.028442207723856">
 <ele>-23.8956298828125</ele>
 <time>2011-09-26T13:10:28Z</time>
 </trkpt>
 <trkpt lat="54.425405608490109" lon="13.028645133599639">
 <ele>-25.818359375</ele>
 <time>2011-09-26T13:10:39Z</time>
 </trkpt>
 <trkpt lat="54.42545841448009" lon="13.02888804115355">
 <ele>-22.45361328125</ele>
 <time>2011-09-26T13:10:53Z</time>
 </trkpt>
 <trkpt lat="54.425483224913478" lon="13.029110161587596">
 <ele>-21.9730224609375</ele>
 <time>2011-09-26T13:11:04Z</time>
 </trkpt>
 <trkpt lat="54.42551507614553" lon="13.029229687526822">
 <ele>-20.0504150390625</ele>
 <time>2011-09-26T13:11:17Z</time>
 </trkpt>
 <trkpt lat="54.425571067258716" lon="13.029442671686411">
 <ele>-17.6470947265625</ele>
 <time>2011-09-26T13:11:30Z</time>
 </trkpt>
 <trkpt lat="54.425621274858713" lon="13.029557252302766">
 <ele>-18.1278076171875</ele>
 <time>2011-09-26T13:11:45Z</time>
 </trkpt>
 <trkpt lat="54.425663100555539" lon="13.029588432982564">
 <ele>-18.6083984375</ele>
 <time>2011-09-26T13:11:59Z</time>
 </trkpt>
 <trkpt lat="54.42573887296021" lon="13.029659260064363">
 <ele>-14.7630615234375</ele>
 <time>2011-09-26T13:12:10Z</time>
 </trkpt>
 <trkpt lat="54.425916317850351" lon="13.029923541471362">
 <ele>-15.24365234375</ele>
 <time>2011-09-26T13:12:30Z</time>
 </trkpt>
 <trkpt lat="54.426024276763201" lon="13.030045330524445">
 <ele>-15.24365234375</ele>
 <time>2011-09-26T13:12:43Z</time>
 </trkpt>
 <trkpt lat="54.426209516823292" lon="13.03020098246634">
 <ele>-13.8017578125</ele>
 <time>2011-09-26T13:13:02Z</time>
 </trkpt>
 <trkpt lat="54.42626902833581" lon="13.030254375189543">
 <ele>-12.35986328125</ele>
 <time>2011-09-26T13:13:22Z</time>
 </trkpt>
 <trkpt lat="54.426495004445314" lon="13.030396029353142">
 <ele>-9.475830078125</ele>
 <time>2011-09-26T13:13:57Z</time>
 </trkpt>
 <trkpt lat="54.426673874258995" lon="13.030437184497714">
 <ele>-6.1112060546875</ele>
 <time>2011-09-26T13:14:16Z</time>
 </trkpt>
 <trkpt lat="54.426853666082025" lon="13.030460318550467">
 <ele>-5.14990234375</ele>
 <time>2011-09-26T13:14:38Z</time>
 </trkpt>
 <trkpt lat="54.427045611664653" lon="13.030530977994204">
 <ele>-4.6693115234375</ele>
 <time>2011-09-26T13:14:52Z</time>
 </trkpt>
 <trkpt lat="54.427184164524078" lon="13.030570289120078">
 <ele>0.137451171875</ele>
 <time>2011-09-26T13:15:05Z</time>
 </trkpt>
 <trkpt lat="54.427343923598528" lon="13.03063390776515">
 <ele>1.0986328125</ele>
 <time>2011-09-26T13:15:21Z</time>
 </trkpt>
 <trkpt lat="54.42756830714643" lon="13.030714457854629">
 <ele>-5.6304931640625</ele>
 <time>2011-09-26T13:15:41Z</time>
 </trkpt>
 <trkpt lat="54.427707111462951" lon="13.030682858079672">
 <ele>-7.5531005859375</ele>
 <time>2011-09-26T13:15:52Z</time>
 </trkpt>
 <trkpt lat="54.427840802818537" lon="13.03066810593009">
 <ele>-9.475830078125</ele>
 <time>2011-09-26T13:16:03Z</time>
 </trkpt>
 <trkpt lat="54.427978601306677" lon="13.030691323801875">
 <ele>-13.321044921875</ele>
 <time>2011-09-26T13:16:15Z</time>
 </trkpt>
 <trkpt lat="54.428230142220855" lon="13.030668860301375">
 <ele>-9.475830078125</ele>
 <time>2011-09-26T13:16:37Z</time>
 </trkpt>
 <trkpt lat="54.428362576290965" lon="13.030678331851959">
 <ele>-13.8017578125</ele>
 <time>2011-09-26T13:16:52Z</time>
 </trkpt>
 <trkpt lat="54.428532728925347" lon="13.030648995190859">
 <ele>-9.95654296875</ele>
 <time>2011-09-26T13:17:13Z</time>
 </trkpt>
 <trkpt lat="54.428723501041532" lon="13.030657293274999">
 <ele>-8.5146484375</ele>
 <time>2011-09-26T13:17:29Z</time>
 </trkpt>
 <trkpt lat="54.428970851004124" lon="13.030709512531757">
 <ele>-9.95654296875</ele>
 <time>2011-09-26T13:17:51Z</time>
 </trkpt>
 <trkpt lat="54.429130610078573" lon="13.030766593292356">
 <ele>-18.1278076171875</ele>
 <time>2011-09-26T13:18:05Z</time>
 </trkpt>
 <trkpt lat="54.429310234263539" lon="13.030749578028917">
 <ele>-15.24365234375</ele>
 <time>2011-09-26T13:18:22Z</time>
 </trkpt>
 <trkpt lat="54.429435459896922" lon="13.030775478109717">
 <ele>-13.8017578125</ele>
 <time>2011-09-26T13:18:35Z</time>
 </trkpt>
 <trkpt lat="54.429606785997748" lon="13.030776232481003">
 <ele>-10.9178466796875</ele>
 <time>2011-09-26T13:18:51Z</time>
 </trkpt>
 <trkpt lat="54.429783811792731" lon="13.030794085934758">
 <ele>-8.5146484375</ele>
 <time>2011-09-26T13:19:05Z</time>
 </trkpt>
 <trkpt lat="54.429917084053159" lon="13.03079073317349">
 <ele>-7.072509765625</ele>
 <time>2011-09-26T13:19:21Z</time>
 </trkpt>
 <trkpt lat="54.430115148425102" lon="13.030809508636594">
 <ele>-6.5919189453125</ele>
 <time>2011-09-26T13:19:38Z</time>
 </trkpt>
 <trkpt lat="54.43023425526917" lon="13.030849741771817">
 <ele>-11.879150390625</ele>
 <time>2011-09-26T13:19:48Z</time>
 </trkpt>
 <trkpt lat="54.430271638557315" lon="13.030819483101368">
 <ele>-11.3984375</ele>
 <time>2011-09-26T13:19:52Z</time>
 </trkpt>
 <trkpt lat="54.430308686569333" lon="13.030810849741101">
 <ele>-12.8404541015625</ele>
 <time>2011-09-26T13:19:56Z</time>
 </trkpt>
 <trkpt lat="54.430461823940277" lon="13.030857788398862">
 <ele>-8.033935546875</ele>
 <time>2011-09-26T13:20:10Z</time>
 </trkpt>
 <trkpt lat="54.4306022208184" lon="13.030803976580501">
 <ele>-2.7467041015625</ele>
 <time>2011-09-26T13:20:27Z</time>
 </trkpt>
 <trkpt lat="54.430772708728909" lon="13.030802886933088">
 <ele>0.6180419921875</ele>
 <time>2011-09-26T13:20:41Z</time>
 </trkpt>
 <trkpt lat="54.430956356227398" lon="13.030883520841599">
 <ele>1.579345703125</ele>
 <time>2011-09-26T13:20:58Z</time>
 </trkpt>
 <trkpt lat="54.431122066453099" lon="13.031046465039253">
 <ele>0.6180419921875</ele>
 <time>2011-09-26T13:21:15Z</time>
 </trkpt>
 <trkpt lat="54.431348545476794" lon="13.031448544934392">
 <ele>-0.8240966796875</ele>
 <time>2011-09-26T13:21:44Z</time>
 </trkpt>
 <trkpt lat="54.431426245719194" lon="13.03146455436945">
 <ele>-1.3046875</ele>
 <time>2011-09-26T13:21:56Z</time>
 </trkpt>
 <trkpt lat="54.431577958166599" lon="13.03142842836678">
 <ele>0.137451171875</ele>
 <time>2011-09-26T13:22:15Z</time>
 </trkpt>
 <trkpt lat="54.431882724165916" lon="13.0312305316329">
 <ele>6.866455078125</ele>
 <time>2011-09-26T13:22:44Z</time>
 </trkpt>
 <trkpt lat="54.432193860411644" lon="13.031164146959782">
 <ele>9.2698974609375</ele>
 <time>2011-09-26T13:23:08Z</time>
 </trkpt>
 <trkpt lat="54.432357558980584" lon="13.031063647940755">
 <ele>7.827880859375</ele>
 <time>2011-09-26T13:23:30Z</time>
 </trkpt>
 <trkpt lat="54.432621086016297" lon="13.030953342095017">
 <ele>6.3858642578125</ele>
 <time>2011-09-26T13:23:58Z</time>
 </trkpt>
 <trkpt lat="54.43280104547739" lon="13.030905984342098">
 <ele>4.4632568359375</ele>
 <time>2011-09-26T13:24:10Z</time>
 </trkpt>
 <trkpt lat="54.432822838425636" lon="13.030868852511048">
 <ele>4.4632568359375</ele>
 <time>2011-09-26T13:24:13Z</time>
 </trkpt>
 <trkpt lat="54.432879248633981" lon="13.030824176967144">
 <ele>6.866455078125</ele>
 <time>2011-09-26T13:24:24Z</time>
 </trkpt>
 <trkpt lat="54.432894922792912" lon="13.030787548050284">
 <ele>5.424560546875</ele>
 <time>2011-09-26T13:24:26Z</time>
 </trkpt>
 <trkpt lat="54.433033643290401" lon="13.030663328245282">
 <ele>1.0986328125</ele>
 <time>2011-09-26T13:24:39Z</time>
 </trkpt>
 <trkpt lat="54.433073960244656" lon="13.030632901936769">
 <ele>0.137451171875</ele>
 <time>2011-09-26T13:24:43Z</time>
 </trkpt>
 <trkpt lat="54.433157863095403" lon="13.030614545568824">
 <ele>-1.7852783203125</ele>
 <time>2011-09-26T13:24:50Z</time>
 </trkpt>
 <trkpt lat="54.433183427900076" lon="13.030566768720746">
 <ele>-2.2659912109375</ele>
 <time>2011-09-26T13:24:53Z</time>
 </trkpt>
 <trkpt lat="54.433315275236964" lon="13.030493091791868">
 <ele>-2.7467041015625</ele>
 <time>2011-09-26T13:25:06Z</time>
 </trkpt>
 <trkpt lat="54.433355592191219" lon="13.030498875305057">
 <ele>-3.227294921875</ele>
 <time>2011-09-26T13:25:09Z</time>
 </trkpt>
 <trkpt lat="54.433373110368848" lon="13.030615719035268">
 <ele>-7.072509765625</ele>
 <time>2011-09-26T13:25:20Z</time>
 </trkpt>
 <trkpt lat="54.433303037658334" lon="13.03093196824193">
 <ele>-13.321044921875</ele>
 <time>2011-09-26T13:25:39Z</time>
 </trkpt>
 <trkpt lat="54.433292141184211" lon="13.031178396195173">
 <ele>-13.321044921875</ele>
 <time>2011-09-26T13:25:54Z</time>
 </trkpt>
 <trkpt lat="54.433330446481705" lon="13.031362211331725">
 <ele>-13.321044921875</ele>
 <time>2011-09-26T13:26:05Z</time>
 </trkpt>
 <trkpt lat="54.433387443423271" lon="13.03156622685492">
 <ele>-14.7630615234375</ele>
 <time>2011-09-26T13:26:18Z</time>
 </trkpt>
 <trkpt lat="54.433443183079362" lon="13.031785078346729">
 <ele>-16.2052001953125</ele>
 <time>2011-09-26T13:26:31Z</time>
 </trkpt>
 <trkpt lat="54.433497497811913" lon="13.031869316473603">
 <ele>-14.7630615234375</ele>
 <time>2011-09-26T13:26:42Z</time>
 </trkpt>
 <trkpt lat="54.433488445356488" lon="13.031915668398142">
 <ele>-15.24365234375</ele>
 <time>2011-09-26T13:26:45Z</time>
 </trkpt>
 <trkpt lat="54.433497665449977" lon="13.032037122175097">
 <ele>-12.8404541015625</ele>
 <time>2011-09-26T13:26:58Z</time>
 </trkpt>
 <trkpt lat="54.433414181694388" lon="13.032272318378091">
 <ele>-11.879150390625</ele>
 <time>2011-09-26T13:27:25Z</time>
 </trkpt>
 <trkpt lat="54.433402111753821" lon="13.032307773828506">
 <ele>-11.879150390625</ele>
 <time>2011-09-26T13:27:27Z</time>
 </trkpt>
 <trkpt lat="54.43337713368237" lon="13.03241791203618">
 <ele>-12.8404541015625</ele>
 <time>2011-09-26T13:27:50Z</time>
 </trkpt>
 <trkpt lat="54.433374954387546" lon="13.032460492104292">
 <ele>-12.8404541015625</ele>
 <time>2011-09-26T13:27:57Z</time>
 </trkpt>
 <trkpt lat="54.433345617726445" lon="13.032650677487254">
 <ele>-11.3984375</ele>
 <time>2011-09-26T13:28:08Z</time>
 </trkpt>
 <trkpt lat="54.433380486443639" lon="13.032821081578732">
 <ele>-12.8404541015625</ele>
 <time>2011-09-26T13:28:19Z</time>
 </trkpt>
 <trkpt lat="54.43339029327035" lon="13.032849663868546">
 <ele>-13.321044921875</ele>
 <time>2011-09-26T13:28:46Z</time>
 </trkpt>
 <trkpt lat="54.43340202793479" lon="13.032783782109618">
 <ele>-12.35986328125</ele>
 <time>2011-09-26T13:29:29Z</time>
 </trkpt>
 <trkpt lat="54.433395825326443" lon="13.032737178727984">
 <ele>-12.8404541015625</ele>
 <time>2011-09-26T13:29:32Z</time>
 </trkpt>
 <trkpt lat="54.433371601626277" lon="13.032618071883917">
 <ele>-12.8404541015625</ele>
 <time>2011-09-26T13:29:45Z</time>
 </trkpt>
 <trkpt lat="54.433462293818593" lon="13.032659143209457">
 <ele>-11.3984375</ele>
 <time>2011-09-26T13:30:05Z</time>
 </trkpt>
 <trkpt lat="54.433584669604897" lon="13.032601727172732">
 <ele>-9.95654296875</ele>
 <time>2011-09-26T13:30:26Z</time>
 </trkpt>
 <trkpt lat="54.433681732043624" lon="13.032527463510633">
 <ele>-10.437255859375</ele>
 <time>2011-09-26T13:30:39Z</time>
 </trkpt>
 <trkpt lat="54.433711990714073" lon="13.03253760561347">
 <ele>-10.437255859375</ele>
 <time>2011-09-26T13:31:05Z</time>
 </trkpt>
 <trkpt lat="54.433803353458643" lon="13.032616814598441">
 <ele>-9.95654296875</ele>
 <time>2011-09-26T13:31:29Z</time>
 </trkpt>
 <trkpt lat="54.433954982087016" lon="13.03272720426321">
 <ele>-10.9178466796875</ele>
 <time>2011-09-26T13:31:47Z</time>
 </trkpt>
 <trkpt lat="54.434053972363472" lon="13.032789314165711">
 <ele>-14.282470703125</ele>
 <time>2011-09-26T13:31:58Z</time>
 </trkpt>
 <trkpt lat="54.434072831645608" lon="13.032839857041836">
 <ele>-14.7630615234375</ele>
 <time>2011-09-26T13:32:02Z</time>
 </trkpt>
 <trkpt lat="54.434059923514724" lon="13.032883442938328">
 <ele>-15.24365234375</ele>
 <time>2011-09-26T13:32:23Z</time>
 </trkpt>
 <trkpt lat="54.434040896594524" lon="13.03280389867723">
 <ele>-15.724365234375</ele>
 <time>2011-09-26T13:39:20Z</time>
 </trkpt>
 <trkpt lat="54.433913575485349" lon="13.032691916450858">
 <ele>-17.1663818359375</ele>
 <time>2011-09-26T13:39:35Z</time>
 </trkpt>
 <trkpt lat="54.43376898765564" lon="13.032585550099611">
 <ele>-22.45361328125</ele>
 <time>2011-09-26T13:39:51Z</time>
 </trkpt>
 <trkpt lat="54.433683743700385" lon="13.032376253977418">
 <ele>-18.6083984375</ele>
 <time>2011-09-26T13:40:07Z</time>
 </trkpt>
 <trkpt lat="54.433633117005229" lon="13.032233761623502">
 <ele>-15.724365234375</ele>
 <time>2011-09-26T13:40:26Z</time>
 </trkpt>
 <trkpt lat="54.43360285833478" lon="13.032080875709653">
 <ele>-14.282470703125</ele>
 <time>2011-09-26T13:40:45Z</time>
 </trkpt>
 <trkpt lat="54.433517614379525" lon="13.031822545453906">
 <ele>-14.7630615234375</ele>
 <time>2011-09-26T13:41:04Z</time>
 </trkpt>
 <trkpt lat="54.433461623266339" lon="13.031593300402164">
 <ele>-11.879150390625</ele>
 <time>2011-09-26T13:41:21Z</time>
 </trkpt>
 <trkpt lat="54.433385683223605" lon="13.031421639025211">
 <ele>-9.475830078125</ele>
 <time>2011-09-26T13:41:36Z</time>
 </trkpt>
 <trkpt lat="54.433337822556496" lon="13.031282499432564">
 <ele>-8.5146484375</ele>
 <time>2011-09-26T13:41:56Z</time>
 </trkpt>
 <trkpt lat="54.433329608291388" lon="13.031147718429565">
 <ele>-8.9952392578125</ele>
 <time>2011-09-26T13:42:16Z</time>
 </trkpt>
 <trkpt lat="54.433334888890386" lon="13.031121734529734">
 <ele>-8.5146484375</ele>
 <time>2011-09-26T13:42:18Z</time>
 </trkpt>
 <trkpt lat="54.433338493108749" lon="13.03077950142324">
 <ele>-7.5531005859375</ele>
 <time>2011-09-26T13:42:39Z</time>
 </trkpt>
 <trkpt lat="54.433343857526779" lon="13.030754690989852">
 <ele>-8.033935546875</ele>
 <time>2011-09-26T13:42:41Z</time>
 </trkpt>
 <trkpt lat="54.433363890275359" lon="13.030588896945119">
 <ele>-6.5919189453125</ele>
 <time>2011-09-26T13:42:53Z</time>
 </trkpt>
 <trkpt lat="54.43338492885232" lon="13.030467443168163">
 <ele>-5.6304931640625</ele>
 <time>2011-09-26T13:43:01Z</time>
 </trkpt>
 <trkpt lat="54.433378893882036" lon="13.03040424361825">
 <ele>-5.14990234375</ele>
 <time>2011-09-26T13:43:05Z</time>
 </trkpt>
 <trkpt lat="54.433396914973855" lon="13.030178351327777">
 <ele>-3.227294921875</ele>
 <time>2011-09-26T13:43:18Z</time>
 </trkpt>
 <trkpt lat="54.433392724022269" lon="13.030105093494058">
 <ele>-2.7467041015625</ele>
 <time>2011-09-26T13:43:23Z</time>
 </trkpt>
 <trkpt lat="54.433430442586541" lon="13.029977437108755">
 <ele>-0.8240966796875</ele>
 <time>2011-09-26T13:43:35Z</time>
 </trkpt>
 <trkpt lat="54.43313866853714" lon="13.029374526813626">
 <ele>10.7117919921875</ele>
 <time>2011-09-26T13:44:31Z</time>
 </trkpt>
 <trkpt lat="54.432868603616953" lon="13.029001364484429">
 <ele>12.15380859375</ele>
 <time>2011-09-26T13:45:09Z</time>
 </trkpt>
 <trkpt lat="54.432769445702434" lon="13.02886750549078">
 <ele>9.7506103515625</ele>
 <time>2011-09-26T13:45:18Z</time>
 </trkpt>
 <trkpt lat="54.432753436267376" lon="13.028723336756229">
 <ele>10.231201171875</ele>
 <time>2011-09-26T13:45:27Z</time>
 </trkpt>
 <trkpt lat="54.432660229504108" lon="13.0285660084337">
 <ele>11.6732177734375</ele>
 <time>2011-09-26T13:45:39Z</time>
 </trkpt>
 <trkpt lat="54.432446993887424" lon="13.028355957940221">
 <ele>11.1925048828125</ele>
 <time>2011-09-26T13:46:01Z</time>
 </trkpt>
 <trkpt lat="54.432233506813645" lon="13.02827775478363">
 <ele>9.2698974609375</ele>
 <time>2011-09-26T13:46:23Z</time>
 </trkpt>
 <trkpt lat="54.432190088555217" lon="13.028247244656086">
 <ele>7.827880859375</ele>
 <time>2011-09-26T13:46:35Z</time>
 </trkpt>
 <trkpt lat="54.431961514055729" lon="13.02808572538197">
 <ele>3.982666015625</ele>
 <time>2011-09-26T13:46:48Z</time>
 </trkpt>
 <trkpt lat="54.431873168796301" lon="13.028006935492158">
 <ele>0.137451171875</ele>
 <time>2011-09-26T13:46:59Z</time>
 </trkpt>
 <trkpt lat="54.4316849950701" lon="13.027932588011026">
 <ele>-1.7852783203125</ele>
 <time>2011-09-26T13:47:15Z</time>
 </trkpt>
 <trkpt lat="54.4315399043262" lon="13.027832088992">
 <ele>-2.7467041015625</ele>
 <time>2011-09-26T13:47:27Z</time>
 </trkpt>
 <trkpt lat="54.431302528828382" lon="13.027734188362956">
 <ele>-7.072509765625</ele>
 <time>2011-09-26T13:47:50Z</time>
 </trkpt>
 <trkpt lat="54.431017879396677" lon="13.027600161731243">
 <ele>-3.7078857421875</ele>
 <time>2011-09-26T13:48:40Z</time>
 </trkpt>
 <trkpt lat="54.430789975449443" lon="13.02741919644177">
 <ele>-2.7467041015625</ele>
 <time>2011-09-26T13:49:00Z</time>
 </trkpt>
 <trkpt lat="54.430515384301543" lon="13.027291875332594">
 <ele>-5.6304931640625</ele>
 <time>2011-09-26T13:49:25Z</time>
 </trkpt>
 <trkpt lat="54.430418321862817" lon="13.027216689661145">
 <ele>-6.1112060546875</ele>
 <time>2011-09-26T13:49:36Z</time>
 </trkpt>
 <trkpt lat="54.42997575737536" lon="13.026988953351974">
 <ele>-6.5919189453125</ele>
 <time>2011-09-26T13:50:20Z</time>
 </trkpt>
 <trkpt lat="54.42963813431561" lon="13.026688965037465">
 <ele>-4.1885986328125</ele>
 <time>2011-09-26T13:51:04Z</time>
 </trkpt>
 <trkpt lat="54.428011626005173" lon="13.025621781125665">
 <ele>3.021240234375</ele>
 <time>2011-09-26T13:53:36Z</time>
 </trkpt>
 <trkpt lat="54.42781406454742" lon="13.025418939068913">
 <ele>2.5406494140625</ele>
 <time>2011-09-26T13:54:19Z</time>
 </trkpt>
 <trkpt lat="54.427184835076332" lon="13.025052985176444">
 <ele>1.579345703125</ele>
 <time>2011-09-26T13:54:54Z</time>
 </trkpt>
 <trkpt lat="54.426777139306068" lon="13.024724498391151">
 <ele>-0.3433837890625</ele>
 <time>2011-09-26T13:55:21Z</time>
 </trkpt>
 <trkpt lat="54.426679071038961" lon="13.024671440944076">
 <ele>-0.8240966796875</ele>
 <time>2011-09-26T13:55:35Z</time>
 </trkpt>
 <trkpt lat="54.426629869267344" lon="13.024589717388153">
 <ele>-0.8240966796875</ele>
 <time>2011-09-26T13:55:52Z</time>
 </trkpt>
 <trkpt lat="54.426612351089716" lon="13.024591393768787">
 <ele>-0.8240966796875</ele>
 <time>2011-09-26T13:56:08Z</time>
 </trkpt>
 <trkpt lat="54.426036430522799" lon="13.024236923083663">
 <ele>-0.8240966796875</ele>
 <time>2011-09-26T13:56:43Z</time>
 </trkpt>
 <trkpt lat="54.425157168880105" lon="13.02372126840055">
 <ele>1.0986328125</ele>
 <time>2011-09-26T13:57:48Z</time>
 </trkpt>
 <trkpt lat="54.424514025449753" lon="13.023413484916091">
 <ele>-5.14990234375</ele>
 <time>2011-09-26T13:58:47Z</time>
 </trkpt>
 <trkpt lat="54.424347644671798" lon="13.023251630365849">
 <ele>-7.072509765625</ele>
 <time>2011-09-26T13:59:02Z</time>
 </trkpt>
 <trkpt lat="54.424180593341589" lon="13.023132188245654">
 <ele>-8.9952392578125</ele>
 <time>2011-09-26T13:59:18Z</time>
 </trkpt>
 <trkpt lat="54.423764683306217" lon="13.022816190496087">
 <ele>-9.95654296875</ele>
 <time>2011-09-26T13:59:58Z</time>
 </trkpt>
 <trkpt lat="54.422887600958347" lon="13.022234234958887">
 <ele>-8.033935546875</ele>
 <time>2011-09-26T14:01:35Z</time>
 </trkpt>
 <trkpt lat="54.42254327237606" lon="13.022055868059397">
 <ele>-8.9952392578125</ele>
 <time>2011-09-26T14:01:51Z</time>
 </trkpt>
 <trkpt lat="54.42245434038341" lon="13.022026866674423">
 <ele>-8.5146484375</ele>
 <time>2011-09-26T14:02:00Z</time>
 </trkpt>
 <trkpt lat="54.422445287927985" lon="13.022029381245375">
 <ele>-8.5146484375</ele>
 <time>2011-09-26T14:02:12Z</time>
 </trkpt>
 <trkpt lat="54.42162704654038" lon="13.021309124305844">
 <ele>-6.5919189453125</ele>
 <time>2011-09-26T14:03:51Z</time>
 </trkpt>
 <trkpt lat="54.420823222026229" lon="13.02077192813158">
 <ele>-3.7078857421875</ele>
 <time>2011-09-26T14:05:07Z</time>
 </trkpt>
 <trkpt lat="54.420343777164817" lon="13.020448889583349">
 <ele>-1.7852783203125</ele>
 <time>2011-09-26T14:05:37Z</time>
 </trkpt>
 <trkpt lat="54.42023498006165" lon="13.020131047815084">
 <ele>-0.3433837890625</ele>
 <time>2011-09-26T14:05:49Z</time>
 </trkpt>
 <trkpt lat="54.420169768854976" lon="13.02000381052494">
 <ele>0.137451171875</ele>
 <time>2011-09-26T14:05:54Z</time>
 </trkpt>
 <trkpt lat="54.420144036412239" lon="13.019946478307247">
 <ele>0.6180419921875</ele>
 <time>2011-09-26T14:05:57Z</time>
 </trkpt>
 <trkpt lat="54.420107156038284" lon="13.019867269322276">
 <ele>1.0986328125</ele>
 <time>2011-09-26T14:06:14Z</time>
 </trkpt>
 <trkpt lat="54.420123500749469" lon="13.019823180511594">
 <ele>6.3858642578125</ele>
 <time>2011-09-26T14:08:48Z</time>
 </trkpt>
 <trkpt lat="54.420159375295043" lon="13.019651602953672">
 <ele>4.4632568359375</ele>
 <time>2011-09-26T14:09:02Z</time>
 </trkpt>
 <trkpt lat="54.420160464942455" lon="13.019651100039482">
 <ele>4.4632568359375</ele>
 <time>2011-09-26T14:09:03Z</time>
 </trkpt>
 <trkpt lat="54.420370431616902" lon="13.01963928155601">
 <ele>1.0986328125</ele>
 <time>2011-09-26T14:09:12Z</time>
 </trkpt>
 <trkpt lat="54.420350734144449" lon="13.019654871895909">
 <ele>2.06005859375</ele>
 <time>2011-09-26T14:09:33Z</time>
 </trkpt>
 <trkpt lat="54.420253168791533" lon="13.019587900489569">
 <ele>5.9052734375</ele>
 <time>2011-09-26T14:10:03Z</time>
 </trkpt>
 <trkpt lat="54.420098103582859" lon="13.02005703561008">
 <ele>7.34716796875</ele>
 <time>2011-09-26T14:10:13Z</time>
 </trkpt>
 <trkpt lat="54.420067928731441" lon="13.02019433118403">
 <ele>7.34716796875</ele>
 <time>2011-09-26T14:10:17Z</time>
 </trkpt>
 <trkpt lat="54.419882521033287" lon="13.020177399739623">
 <ele>10.7117919921875</ele>
 <time>2011-09-26T14:10:24Z</time>
 </trkpt>
 <trkpt lat="54.419508688151836" lon="13.019749168306589">
 <ele>14.076416015625</ele>
 <time>2011-09-26T14:10:30Z</time>
 </trkpt>
 <trkpt lat="54.419265612959862" lon="13.019594270735979">
 <ele>13.1151123046875</ele>
 <time>2011-09-26T14:10:32Z</time>
 </trkpt>
 <trkpt lat="54.418167835101485" lon="13.019045507535338">
 <ele>5.424560546875</ele>
 <time>2011-09-26T14:10:41Z</time>
 </trkpt>
 <trkpt lat="54.417545646429062" lon="13.018182003870606">
 <ele>1.0986328125</ele>
 <time>2011-09-26T14:10:47Z</time>
 </trkpt>
 <trkpt lat="54.416752299293876" lon="13.015730800107121">
 <ele>-7.072509765625</ele>
 <time>2011-09-26T14:10:58Z</time>
 </trkpt>
 <trkpt lat="54.416293976828456" lon="13.014270588755608">
 <ele>-8.5146484375</ele>
 <time>2011-09-26T14:11:06Z</time>
 </trkpt>
 <trkpt lat="54.416122734546661" lon="13.013857612386346">
 <ele>-7.072509765625</ele>
 <time>2011-09-26T14:11:10Z</time>
 </trkpt>
 <trkpt lat="54.415869601070881" lon="13.013576734811068">
 <ele>-6.5919189453125</ele>
 <time>2011-09-26T14:11:14Z</time>
 </trkpt>
 <trkpt lat="54.415555782616138" lon="13.013513619080186">
 <ele>-8.5146484375</ele>
 <time>2011-09-26T14:11:18Z</time>
 </trkpt>
 <trkpt lat="54.414430260658264" lon="13.014454822987318">
 <ele>-10.437255859375</ele>
 <time>2011-09-26T14:11:30Z</time>
 </trkpt>
 <trkpt lat="54.41305018030107" lon="13.015431230887771">
 <ele>-10.9178466796875</ele>
 <time>2011-09-26T14:11:43Z</time>
 </trkpt>
 <trkpt lat="54.412189442664385" lon="13.016081666573882">
 <ele>-11.879150390625</ele>
 <time>2011-09-26T14:11:52Z</time>
 </trkpt>
 <trkpt lat="54.41181686706841" lon="13.015952333807945">
 <ele>-11.879150390625</ele>
 <time>2011-09-26T14:11:57Z</time>
 </trkpt>
 <trkpt lat="54.411579659208655" lon="13.015636503696442">
 <ele>-11.879150390625</ele>
 <time>2011-09-26T14:12:00Z</time>
 </trkpt>
 <trkpt lat="54.411176992580295" lon="13.015372976660728">
 <ele>-12.8404541015625</ele>
 <time>2011-09-26T14:12:04Z</time>
 </trkpt>
 <trkpt lat="54.409815687686205" lon="13.014929825440049">
 <ele>-12.8404541015625</ele>
 <time>2011-09-26T14:12:16Z</time>
 </trkpt>
 <trkpt lat="54.408540464937687" lon="13.014493128284812">
 <ele>-10.9178466796875</ele>
 <time>2011-09-26T14:12:28Z</time>
 </trkpt>
 <trkpt lat="54.407355431467295" lon="13.014385337010026">
 <ele>-11.3984375</ele>
 <time>2011-09-26T14:12:39Z</time>
 </trkpt>
 <trkpt lat="54.407071117311716" lon="13.014397574588656">
 <ele>-11.879150390625</ele>
 <time>2011-09-26T14:12:42Z</time>
 </trkpt>
 <trkpt lat="54.406264694407582" lon="13.013997422531247">
 <ele>-11.3984375</ele>
 <time>2011-09-26T14:12:50Z</time>
 </trkpt>
 <trkpt lat="54.405775358900428" lon="13.014053078368306">
 <ele>-10.437255859375</ele>
 <time>2011-09-26T14:12:55Z</time>
 </trkpt>
 <trkpt lat="54.404902467504144" lon="13.014715751633048">
 <ele>-9.475830078125</ele>
 <time>2011-09-26T14:13:04Z</time>
 </trkpt>
 <trkpt lat="54.404353369027376" lon="13.0146249756217">
 <ele>-5.6304931640625</ele>
 <time>2011-09-26T14:13:11Z</time>
 </trkpt>
 <trkpt lat="54.404311124235392" lon="13.014551633968949">
 <ele>-6.1112060546875</ele>
 <time>2011-09-26T14:13:14Z</time>
 </trkpt>
 <trkpt lat="54.404149604961276" lon="13.014561356976628">
 <ele>-6.1112060546875</ele>
 <time>2011-09-26T14:13:18Z</time>
 </trkpt>
 <trkpt lat="54.403750207275152" lon="13.015214307233691">
 <ele>-5.14990234375</ele>
 <time>2011-09-26T14:13:26Z</time>
 </trkpt>
 <trkpt lat="54.403300266712904" lon="13.016060963273048">
 <ele>-9.95654296875</ele>
 <time>2011-09-26T14:13:38Z</time>
 </trkpt>
 <trkpt lat="54.403039421886206" lon="13.016534876078367">
 <ele>-13.8017578125</ele>
 <time>2011-09-26T14:13:48Z</time>
 </trkpt>
 <trkpt lat="54.402715712785721" lon="13.017109539359808">
 <ele>-14.282470703125</ele>
 <time>2011-09-26T14:13:55Z</time>
 </trkpt>
 <trkpt lat="54.402427542954683" lon="13.017629301175475">
 <ele>-16.685791015625</ele>
 <time>2011-09-26T14:14:05Z</time>
 </trkpt>
 <trkpt lat="54.402164854109287" lon="13.018099525943398">
 <ele>-17.1663818359375</ele>
 <time>2011-09-26T14:14:10Z</time>
 </trkpt>
 <trkpt lat="54.40135532990098" lon="13.019509026780725">
 <ele>-19.0889892578125</ele>
 <time>2011-09-26T14:14:22Z</time>
 </trkpt>
 <trkpt lat="54.400894241407514" lon="13.020312432199717">
 <ele>-18.1278076171875</ele>
 <time>2011-09-26T14:14:28Z</time>
 </trkpt>
 <trkpt lat="54.399860836565495" lon="13.021146096289158">
 <ele>-15.24365234375</ele>
 <time>2011-09-26T14:14:37Z</time>
 </trkpt>
 <trkpt lat="54.398265089839697" lon="13.021717825904489">
 <ele>-16.685791015625</ele>
 <time>2011-09-26T14:14:48Z</time>
 </trkpt>
 <trkpt lat="54.39708081074059" lon="13.02170961163938">
 <ele>-15.24365234375</ele>
 <time>2011-09-26T14:14:57Z</time>
 </trkpt>
 <trkpt lat="54.396541016176343" lon="13.021924858912826">
 <ele>-16.2052001953125</ele>
 <time>2011-09-26T14:15:02Z</time>
 </trkpt>
 <trkpt lat="54.39490688033402" lon="13.023863760754466">
 <ele>-14.7630615234375</ele>
 <time>2011-09-26T14:15:17Z</time>
 </trkpt>
 <trkpt lat="54.393761744722724" lon="13.026159480214119">
 <ele>-13.8017578125</ele>
 <time>2011-09-26T14:15:29Z</time>
 </trkpt>
 <trkpt lat="54.392304047942162" lon="13.029064061120152">
 <ele>-14.282470703125</ele>
 <time>2011-09-26T14:15:44Z</time>
 </trkpt>
 <trkpt lat="54.392068851739168" lon="13.029446862637997">
 <ele>-14.7630615234375</ele>
 <time>2011-09-26T14:15:51Z</time>
 </trkpt>
 <trkpt lat="54.392047226428986" lon="13.029498159885406">
 <ele>-14.7630615234375</ele>
 <time>2011-09-26T14:15:59Z</time>
 </trkpt>
 <trkpt lat="54.391800295561552" lon="13.029886493459344">
 <ele>-14.7630615234375</ele>
 <time>2011-09-26T14:16:04Z</time>
 </trkpt>
 <trkpt lat="54.391378853470087" lon="13.030049772933125">
 <ele>-13.8017578125</ele>
 <time>2011-09-26T14:16:11Z</time>
 </trkpt>
 <trkpt lat="54.390458017587662" lon="13.029603604227304">
 <ele>-14.282470703125</ele>
 <time>2011-09-26T14:16:24Z</time>
 </trkpt>
 <trkpt lat="54.389115823432803" lon="13.028966663405299">
 <ele>-14.282470703125</ele>
 <time>2011-09-26T14:16:34Z</time>
 </trkpt>
 <trkpt lat="54.387165941298008" lon="13.028029315173626">
 <ele>-13.321044921875</ele>
 <time>2011-09-26T14:16:47Z</time>
 </trkpt>
 <trkpt lat="54.385825926437974" lon="13.027432188391685">
 <ele>-10.437255859375</ele>
 <time>2011-09-26T14:16:57Z</time>
 </trkpt>
 <trkpt lat="54.38528629951179" lon="13.02716706879437">
 <ele>-11.3984375</ele>
 <time>2011-09-26T14:17:04Z</time>
 </trkpt>
 <trkpt lat="54.384638629853725" lon="13.026661975309253">
 <ele>-9.475830078125</ele>
 <time>2011-09-26T14:17:12Z</time>
 </trkpt>
 <trkpt lat="54.383452422916889" lon="13.025752203539014">
 <ele>-8.9952392578125</ele>
 <time>2011-09-26T14:17:21Z</time>
 </trkpt>
 <trkpt lat="54.381534894928336" lon="13.024329710751772">
 <ele>-5.6304931640625</ele>
 <time>2011-09-26T14:17:34Z</time>
 </trkpt>
 <trkpt lat="54.379562633112073" lon="13.022839240729809">
 <ele>-5.6304931640625</ele>
 <time>2011-09-26T14:17:47Z</time>
 </trkpt>
 <trkpt lat="54.378575664013624" lon="13.022081516683102">
 <ele>-7.5531005859375</ele>
 <time>2011-09-26T14:17:56Z</time>
 </trkpt>
 <trkpt lat="54.377652062103152" lon="13.021898791193962">
 <ele>-7.5531005859375</ele>
 <time>2011-09-26T14:18:08Z</time>
 </trkpt>
 <trkpt lat="54.377229111269116" lon="13.021891331300139">
 <ele>-7.072509765625</ele>
 <time>2011-09-26T14:18:13Z</time>
 </trkpt>
 <trkpt lat="54.377042949199677" lon="13.021769542247057">
 <ele>-5.14990234375</ele>
 <time>2011-09-26T14:18:17Z</time>
 </trkpt>
 <trkpt lat="54.377017552033067" lon="13.021718328818679">
 <ele>-6.5919189453125</ele>
 <time>2011-09-26T14:18:20Z</time>
 </trkpt>
 <trkpt lat="54.376865671947598" lon="13.021795861423016">
 <ele>-7.5531005859375</ele>
 <time>2011-09-26T14:18:25Z</time>
 </trkpt>
 <trkpt lat="54.376128651201725" lon="13.022561464458704">
 <ele>-9.475830078125</ele>
 <time>2011-09-26T14:18:34Z</time>
 </trkpt>
 <trkpt lat="54.375026514753699" lon="13.023902904242277">
 <ele>-10.437255859375</ele>
 <time>2011-09-26T14:18:45Z</time>
 </trkpt>
 <trkpt lat="54.374641869217157" lon="13.024120330810547">
 <ele>-10.437255859375</ele>
 <time>2011-09-26T14:18:49Z</time>
 </trkpt>
 <trkpt lat="54.373651798814535" lon="13.023942299187183">
 <ele>-8.9952392578125</ele>
 <time>2011-09-26T14:18:58Z</time>
 </trkpt>
 <trkpt lat="54.372111624106765" lon="13.023459333926439">
 <ele>-11.879150390625</ele>
 <time>2011-09-26T14:19:11Z</time>
 </trkpt>
 <trkpt lat="54.370618974789977" lon="13.023439887911081">
 <ele>-13.321044921875</ele>
 <time>2011-09-26T14:19:24Z</time>
 </trkpt>
 <trkpt lat="54.369886396452785" lon="13.023822689428926">
 <ele>-11.3984375</ele>
 <time>2011-09-26T14:19:31Z</time>
 </trkpt>
 <trkpt lat="54.369460176676512" lon="13.023843141272664">
 <ele>-8.9952392578125</ele>
 <time>2011-09-26T14:19:35Z</time>
 </trkpt>
 <trkpt lat="54.368760036304593" lon="13.023498058319092">
 <ele>-6.5919189453125</ele>
 <time>2011-09-26T14:19:42Z</time>
 </trkpt>
 <trkpt lat="54.368228623643517" lon="13.023685980588198">
 <ele>-10.437255859375</ele>
 <time>2011-09-26T14:19:47Z</time>
 </trkpt>
 <trkpt lat="54.366636648774147" lon="13.025719681754708">
 <ele>-9.95654296875</ele>
 <time>2011-09-26T14:20:03Z</time>
 </trkpt>
 <trkpt lat="54.365209965035319" lon="13.027570489794016">
 <ele>-11.879150390625</ele>
 <time>2011-09-26T14:20:17Z</time>
 </trkpt>
 <trkpt lat="54.363934742286801" lon="13.029205128550529">
 <ele>-11.3984375</ele>
 <time>2011-09-26T14:20:29Z</time>
 </trkpt>
 <trkpt lat="54.362678043544292" lon="13.030798444524407">
 <ele>-9.95654296875</ele>
 <time>2011-09-26T14:20:39Z</time>
 </trkpt>
 <trkpt lat="54.360817512497306" lon="13.033185191452503">
 <ele>-9.475830078125</ele>
 <time>2011-09-26T14:20:51Z</time>
 </trkpt>
 <trkpt lat="54.358253907412291" lon="13.036452205851674">
 <ele>-11.879150390625</ele>
 <time>2011-09-26T14:21:07Z</time>
 </trkpt>
 <trkpt lat="54.356263373047113" lon="13.038909276947379">
 <ele>-7.072509765625</ele>
 <time>2011-09-26T14:21:19Z</time>
 </trkpt>
 <trkpt lat="54.354397477582097" lon="13.040520027279854">
 <ele>-2.7467041015625</ele>
 <time>2011-09-26T14:21:29Z</time>
 </trkpt>
 <trkpt lat="54.352560499683022" lon="13.042068248614669">
 <ele>2.06005859375</ele>
 <time>2011-09-26T14:21:40Z</time>
 </trkpt>
 <trkpt lat="54.351989440619946" lon="13.04247384890914">
 <ele>1.579345703125</ele>
 <time>2011-09-26T14:21:46Z</time>
 </trkpt>
 <trkpt lat="54.351708143949509" lon="13.042662357911468">
 <ele>0.6180419921875</ele>
 <time>2011-09-26T14:21:54Z</time>
 </trkpt>
 <trkpt lat="54.351418968290091" lon="13.042788757011294">
 <ele>-0.3433837890625</ele>
 <time>2011-09-26T14:22:00Z</time>
 </trkpt>
 <trkpt lat="54.350749254226685" lon="13.04353566840291">
 <ele>-0.3433837890625</ele>
 <time>2011-09-26T14:22:08Z</time>
 </trkpt>
 <trkpt lat="54.349621888250113" lon="13.044532276690006">
 <ele>-2.2659912109375</ele>
 <time>2011-09-26T14:22:16Z</time>
 </trkpt>
 <trkpt lat="54.347381237894297" lon="13.046691790223122">
 <ele>-6.5919189453125</ele>
 <time>2011-09-26T14:22:30Z</time>
 </trkpt>
 <trkpt lat="54.345294144004583" lon="13.048356436192989">
 <ele>-7.072509765625</ele>
 <time>2011-09-26T14:22:43Z</time>
 </trkpt>
 <trkpt lat="54.34385983273387" lon="13.049483047798276">
 <ele>-5.14990234375</ele>
 <time>2011-09-26T14:22:52Z</time>
 </trkpt>
 <trkpt lat="54.342516716569662" lon="13.051050212234259">
 <ele>-2.2659912109375</ele>
 <time>2011-09-26T14:23:01Z</time>
 </trkpt>
 <trkpt lat="54.341046866029501" lon="13.052946366369724">
 <ele>-0.3433837890625</ele>
 <time>2011-09-26T14:23:12Z</time>
 </trkpt>
 <trkpt lat="54.339354559779167" lon="13.055134043097496">
 <ele>-1.3046875</ele>
 <time>2011-09-26T14:23:26Z</time>
 </trkpt>
 <trkpt lat="54.337704665958881" lon="13.057586336508393">
 <ele>-1.3046875</ele>
 <time>2011-09-26T14:23:39Z</time>
 </trkpt>
 <trkpt lat="54.336594650521874" lon="13.059619450941682">
 <ele>-2.7467041015625</ele>
 <time>2011-09-26T14:23:49Z</time>
 </trkpt>
 <trkpt lat="54.335404252633452" lon="13.061712412163615">
 <ele>-1.7852783203125</ele>
 <time>2011-09-26T14:24:03Z</time>
 </trkpt>
 <trkpt lat="54.334337236359715" lon="13.063626252114773">
 <ele>-1.3046875</ele>
 <time>2011-09-26T14:24:18Z</time>
 </trkpt>
 <trkpt lat="54.334103045985103" lon="13.064021542668343">
 <ele>-1.3046875</ele>
 <time>2011-09-26T14:24:22Z</time>
 </trkpt>
 <trkpt lat="54.334002463147044" lon="13.06427308358252">
 <ele>-2.2659912109375</ele>
 <time>2011-09-26T14:24:26Z</time>
 </trkpt>
 <trkpt lat="54.333849074319005" lon="13.064647587016225">
 <ele>-0.8240966796875</ele>
 <time>2011-09-26T14:24:31Z</time>
 </trkpt>
 <trkpt lat="54.333517737686634" lon="13.065184783190489">
 <ele>-0.3433837890625</ele>
 <time>2011-09-26T14:24:37Z</time>
 </trkpt>
 <trkpt lat="54.3328857421875" lon="13.065934125334024">
 <ele>0.137451171875</ele>
 <time>2011-09-26T14:24:45Z</time>
 </trkpt>
 <trkpt lat="54.331909837201238" lon="13.067219322547317">
 <ele>0.6180419921875</ele>
 <time>2011-09-26T14:24:58Z</time>
 </trkpt>
 <trkpt lat="54.331666510552168" lon="13.067479245364666">
 <ele>2.5406494140625</ele>
 <time>2011-09-26T14:25:04Z</time>
 </trkpt>
 <trkpt lat="54.33160750195384" lon="13.067481257021427">
 <ele>4.94384765625</ele>
 <time>2011-09-26T14:25:12Z</time>
 </trkpt>
 <trkpt lat="54.331452185288072" lon="13.067771941423416">
 <ele>6.3858642578125</ele>
 <time>2011-09-26T14:25:20Z</time>
 </trkpt>
 <trkpt lat="54.33140960521996" lon="13.067814353853464">
 <ele>8.30859375</ele>
 <time>2011-09-26T14:25:23Z</time>
 </trkpt>
 <trkpt lat="54.331449838355184" lon="13.068028930574656">
 <ele>8.7891845703125</ele>
 <time>2011-09-26T14:25:27Z</time>
 </trkpt>
 <trkpt lat="54.332138244062662" lon="13.068851111456752">
 <ele>7.827880859375</ele>
 <time>2011-09-26T14:25:36Z</time>
 </trkpt>
 <trkpt lat="54.332475867122412" lon="13.069282108917832">
 <ele>6.3858642578125</ele>
 <time>2011-09-26T14:25:42Z</time>
 </trkpt>
 <trkpt lat="54.332842659205198" lon="13.069688882678747">
 <ele>2.06005859375</ele>
 <time>2011-09-26T14:25:50Z</time>
 </trkpt>
 <trkpt lat="54.332931339740753" lon="13.069606153294444">
 <ele>0.137451171875</ele>
 <time>2011-09-26T14:25:55Z</time>
 </trkpt>
 <trkpt lat="54.333161422982812" lon="13.069010199978948">
 <ele>-0.3433837890625</ele>
 <time>2011-09-26T14:26:05Z</time>
 </trkpt>
 <trkpt lat="54.333185059949756" lon="13.068880112841725">
 <ele>-1.3046875</ele>
 <time>2011-09-26T14:26:20Z</time>
 </trkpt>
 <trkpt lat="54.333181455731392" lon="13.068888075649738">
 <ele>-1.3046875</ele>
 <time>2011-09-26T14:26:42Z</time>
 </trkpt>
 </trkseg>
 </trk>

</gpx>
